Time;durP1;ratioP1;P1;durP2;ratioP2;P2;SDS_P1;SDS_P2;PMS_P1;PMS_P2;Temp;Humidity;BMP_temperature;BMP_pressure;BME280_temperature;BME280_humidity;BME280_pressure;Samples;Min_cycle;Max_cycle;Signal;HPM_P1;HPM_P2
2021/01/24 00:02:49;;;;;;;1999.90;999.90;;;3.60;99.90;;;;;;4978693;28;20276;-82
2021/01/24 00:09:00;;;;;;;1999.90;999.90;;;3.70;99.90;;;;;;5013161;28;20174;-81
2021/01/24 00:11:34;;;;;;;1999.90;999.90;;;3.60;99.90;;;;;;5020915;28;20184;-82
2021/01/24 00:14:00;;;;;;;1999.90;999.90;;;3.70;99.90;;;;;;5035155;28;20231;-82
2021/01/24 00:16:29;;;;;;;1999.90;999.90;;;3.70;99.90;;;;;;5017367;28;20208;-81
2021/01/24 00:19:04;;;;;;;1999.90;999.90;;;3.70;99.90;;;;;;5018028;28;20250;-82
2021/01/24 00:21:30;;;;;;;1999.90;999.90;;;3.70;99.90;;;;;;5017787;28;20611;-82
2021/01/24 00:24:01;;;;;;;1999.90;999.90;;;3.70;99.90;;;;;;5018438;28;20223;-81
2021/01/24 00:26:49;;;;;;;1999.90;999.90;;;3.80;99.90;;;;;;5018199;28;20415;-82
2021/01/24 00:29:55;;;;;;;1999.90;999.90;;;3.70;99.90;;;;;;5035021;28;20169;-82
2021/01/24 00:32:36;;;;;;;1999.90;999.90;;;3.70;99.90;;;;;;5030303;28;20208;-82
2021/01/24 00:35:22;;;;;;;1999.90;999.90;;;3.70;99.90;;;;;;5035285;28;20161;-82
2021/01/24 00:37:57;;;;;;;1999.90;999.90;;;3.80;99.90;;;;;;5017978;28;20698;-82
2021/01/24 00:40:50;;;;;;;1999.90;999.90;;;3.80;99.90;;;;;;5017139;28;20185;-82
2021/01/24 00:43:40;;;;;;;1999.90;999.90;;;3.80;99.90;;;;;;5017626;28;20177;-82
2021/01/24 00:49:18;;;;;;;1999.90;999.90;;;4.00;99.90;;;;;;5035124;28;20212;-82
2021/01/24 00:52:21;;;;;;;1999.90;999.90;;;4.20;99.90;;;;;;5005629;28;20223;-82
2021/01/24 00:55:06;;;;;;;1999.90;999.90;;;4.40;99.90;;;;;;4988262;28;20211;-81
2021/01/24 01:01:23;;;;;;;1999.90;999.90;;;4.50;99.90;;;;;;4974081;28;20175;-82
2021/01/24 01:04:18;;;;;;;1999.90;999.90;;;4.30;99.90;;;;;;4947308;28;20179;-82
2021/01/24 01:07:34;;;;;;;1999.90;999.90;;;4.20;99.90;;;;;;4900729;29;20216;-82
2021/01/24 01:10:13;;;;;;;1999.90;999.90;;;4.10;99.90;;;;;;4997157;28;20264;-82
2021/01/24 01:13:24;;;;;;;1999.90;999.90;;;3.90;99.90;;;;;;5017021;28;20165;-82
2021/01/24 01:16:22;;;;;;;1999.90;999.90;;;3.70;99.90;;;;;;5034690;28;20165;-82
2021/01/24 01:22:45;;;;;;;1999.90;999.90;;;3.40;99.90;;;;;;4939140;28;20177;-82
2021/01/24 01:25:20;;;;;;;1999.90;999.90;;;3.30;99.90;;;;;;5090541;22;20543;-85
2021/01/24 01:28:02;;;;;;;1999.90;999.90;;;3.10;99.90;;;;;;5043744;28;20222;-85
2021/01/24 01:30:54;;;;;;;1999.90;999.90;;;3.10;99.90;;;;;;5062818;28;20175;-85
2021/01/24 01:33:24;;;;;;;1999.90;999.90;;;3.00;99.90;;;;;;5058514;28;20183;-85
2021/01/24 01:36:00;;;;;;;1999.90;999.90;;;3.00;99.90;;;;;;5063111;28;20153;-86
2021/01/24 01:38:31;;;;;;;1999.90;999.90;;;2.90;99.90;;;;;;5062586;28;20194;-84
2021/01/24 01:41:21;;;;;;;1999.90;999.90;;;2.90;99.90;;;;;;5044053;28;20169;-84
2021/01/24 01:43:49;;;;;;;1999.90;999.90;;;2.80;99.90;;;;;;5063059;28;20638;-83
2021/01/24 01:46:21;;;;;;;1999.90;999.90;;;2.70;99.90;;;;;;5062940;28;20196;-83
2021/01/24 01:48:50;;;;;;;1999.90;999.90;;;2.70;99.90;;;;;;5062903;28;20145;-84
2021/01/24 01:51:33;;;;;;;1999.90;999.90;;;2.60;99.90;;;;;;5062424;28;20167;-84
2021/01/24 01:54:07;;;;;;;1999.90;999.90;;;2.50;99.90;;;;;;5044467;28;20161;-84
2021/01/24 01:56:52;;;;;;;1999.90;999.90;;;2.50;99.90;;;;;;5062127;28;20172;-83
2021/01/24 01:59:18;;;;;;;1999.90;999.90;;;2.50;99.90;;;;;;5061140;28;20264;-83
2021/01/24 02:02:18;;;;;;;1999.90;999.90;;;2.50;99.90;;;;;;5061686;28;20192;-84
2021/01/24 02:05:07;;;;;;;1999.90;999.90;;;2.40;99.90;;;;;;5061862;28;20231;-84
2021/01/24 02:07:49;;;;;;;1999.90;999.90;;;2.30;99.90;;;;;;5029311;28;20188;-84
2021/01/24 02:10:50;;;;;;;1999.90;999.90;;;2.30;99.90;;;;;;5043410;28;20211;-83
2021/01/24 02:13:45;;;;;;;1999.90;999.90;;;2.30;99.90;;;;;;5060722;28;20178;-83
2021/01/24 02:23:38;;;;;;;1999.90;999.90;;;2.20;99.90;;;;;;5048765;28;20199;-84
2021/01/24 02:27:32;;;;;;;1999.90;999.90;;;2.20;99.90;;;;;;5059308;28;20198;-83
2021/01/24 02:30:36;;;;;;;1999.90;999.90;;;2.20;99.90;;;;;;4954466;28;20589;-83
2021/01/24 02:36:44;;;;;;;1999.90;999.90;;;2.10;99.90;;;;;;4997765;28;20246;-83
2021/01/24 02:49:17;;;;;;;;;;;;;;;;;;;;;
2021/01/24 02:52:30;;;;;;;1999.90;999.90;;;1.80;99.90;;;;;;4981094;28;20246;-85
2021/01/24 02:55:28;;;;;;;1999.90;999.90;;;1.90;99.90;;;;;;4978773;28;20550;-85
2021/01/24 03:05:09;;;;;;;1999.90;999.90;;;1.80;99.90;;;;;;4939166;28;20286;-84
2021/01/24 03:08:10;;;;;;;1999.90;999.90;;;1.80;99.90;;;;;;4978645;28;20178;-84
2021/01/24 03:10:41;;;;;;;1999.90;999.90;;;1.80;99.90;;;;;;5051880;28;20191;-84
2021/01/24 03:13:09;;;;;;;1999.90;999.90;;;1.80;99.90;;;;;;5039436;28;20703;-83
2021/01/24 03:15:36;;;;;;;1999.90;999.90;;;1.80;99.90;;;;;;5056626;28;20169;-82
2021/01/24 03:18:04;;;;;;;1999.90;999.90;;;1.80;99.90;;;;;;5056801;28;20227;-82
2021/01/24 03:20:34;;;;;;;1999.90;999.90;;;1.80;99.90;;;;;;5057059;28;20176;-83
2021/01/24 03:23:02;;;;;;;1999.90;999.90;;;1.80;99.90;;;;;;5056796;28;20228;-81
2021/01/24 03:25:29;;;;;;;1999.90;999.90;;;1.80;99.90;;;;;;5056572;28;20516;-81
2021/01/24 03:27:55;;;;;;;1999.90;999.90;;;1.80;99.90;;;;;;5055753;28;20184;-82
2021/01/24 03:30:21;;;;;;;1999.90;999.90;;;1.80;99.90;;;;;;5056800;28;20200;-80
2021/01/24 03:32:47;;;;;;;1999.90;999.90;;;1.70;99.90;;;;;;5055932;28;20161;-81
2021/01/24 03:35:13;;;;;;;1999.90;999.90;;;1.70;99.90;;;;;;5055792;28;20188;-80
2021/01/24 03:37:39;;;;;;;1999.90;999.90;;;1.70;99.90;;;;;;5055819;28;20614;-81
2021/01/24 03:40:05;;;;;;;1999.90;999.90;;;1.70;99.90;;;;;;5038494;28;20183;-81
2021/01/24 03:42:31;;;;;;;1999.90;999.90;;;1.70;99.90;;;;;;5056367;28;20168;-81
2021/01/24 03:44:56;;;;;;;1999.90;999.90;;;1.70;99.90;;;;;;5056032;28;20228;-81
2021/01/24 03:47:22;;;;;;;1999.90;999.90;;;1.60;99.90;;;;;;5055505;28;20577;-81
2021/01/24 03:49:48;;;;;;;1999.90;999.90;;;1.60;99.90;;;;;;5055026;28;20179;-81
2021/01/24 03:52:14;;;;;;;1999.90;999.90;;;1.60;99.90;;;;;;5056264;28;20161;-82
2021/01/24 03:54:39;;;;;;;1999.90;999.90;;;1.60;99.90;;;;;;5056177;28;20164;-82
2021/01/24 03:57:05;;;;;;;1999.90;999.90;;;1.70;99.90;;;;;;5056098;28;20662;-82
2021/01/24 03:59:31;;;;;;;1999.90;999.90;;;1.70;99.90;;;;;;5056419;28;20240;-83
2021/01/24 04:01:56;;;;;;;1999.90;999.90;;;1.70;99.90;;;;;;5039276;28;20654;-84
2021/01/24 04:04:22;;;;;;;1999.90;999.90;;;1.70;99.90;;;;;;5039558;28;20164;-85
2021/01/24 04:06:47;;;;;;;1999.90;999.90;;;1.70;99.90;;;;;;5058027;28;20164;-84
2021/01/24 04:09:13;;;;;;;1999.90;999.90;;;1.70;99.90;;;;;;5059296;28;20170;-85
2021/01/24 04:11:39;;;;;;;1999.90;999.90;;;1.70;99.90;;;;;;5060214;28;20501;-85
2021/01/24 04:14:07;;;;;;;1999.90;999.90;;;1.60;99.90;;;;;;5059747;28;20171;-85
2021/01/24 04:16:33;;;;;;;1999.90;999.90;;;1.60;99.90;;;;;;5061618;28;20636;-85
2021/01/24 04:18:59;;;;;;;1999.90;999.90;;;1.70;99.90;;;;;;5062678;28;20242;-85
2021/01/24 04:21:24;;;;;;;1999.90;999.90;;;1.60;99.90;;;;;;5044626;28;20199;-85
2021/01/24 04:23:50;;;;;;;1999.90;999.90;;;1.70;99.90;;;;;;5062491;28;20196;-84
2021/01/24 04:26:15;;;;;;;1999.90;999.90;;;1.60;99.90;;;;;;5045459;28;20176;-85
2021/01/24 04:28:41;;;;;;;1999.90;999.90;;;1.60;99.90;;;;;;5061455;28;20169;-85
2021/01/24 04:31:07;;;;;;;1999.90;999.90;;;1.60;99.90;;;;;;5041663;28;20188;-85
2021/01/24 04:33:32;;;;;;;1999.90;999.90;;;1.60;99.90;;;;;;5038269;28;20654;-85
2021/01/24 04:35:58;;;;;;;1999.90;999.90;;;1.60;99.90;;;;;;5055022;28;20619;-85
2021/01/24 04:38:24;;;;;;;1999.90;999.90;;;1.60;99.90;;;;;;5036222;28;20199;-85
2021/01/24 04:40:50;;;;;;;1999.90;999.90;;;1.60;99.90;;;;;;5055216;28;20624;-85
2021/01/24 04:43:15;;;;;;;1999.90;999.90;;;1.60;99.90;;;;;;5056010;28;20168;-85
2021/01/24 04:45:42;;;;;;;1999.90;999.90;;;1.60;99.90;;;;;;5054844;28;20651;-85
2021/01/24 04:48:09;;;;;;;1999.90;999.90;;;1.60;99.90;;;;;;5055360;28;20596;-87
2021/01/24 04:50:39;;;;;;;1999.90;999.90;;;1.60;99.90;;;;;;5059317;28;20160;-85
2021/01/24 04:53:07;;;;;;;1999.90;999.90;;;1.60;99.90;;;;;;5058738;28;20183;-84
2021/01/24 04:55:34;;;;;;;1999.90;999.90;;;1.60;99.90;;;;;;5059798;28;20704;-84
2021/01/24 04:58:01;;;;;;;1999.90;999.90;;;1.60;99.90;;;;;;5058118;28;20185;-84
2021/01/24 05:00:26;;;;;;;1999.90;999.90;;;1.60;99.90;;;;;;5061350;28;20173;-84
2021/01/24 05:02:52;;;;;;;1999.90;999.90;;;1.60;99.90;;;;;;5047329;28;20170;-85
2021/01/24 05:05:24;;;;;;;1999.90;999.90;;;1.60;99.90;;;;;;5065830;28;20627;-84
2021/01/24 05:07:58;;;;;;;1999.90;999.90;;;1.60;99.90;;;;;;5046328;28;20403;-84
2021/01/24 05:10:30;;;;;;;1999.90;999.90;;;1.60;99.90;;;;;;5045626;28;20168;-84
2021/01/24 05:12:57;;;;;;;1999.90;999.90;;;1.60;99.90;;;;;;5045730;28;20172;-84
2021/01/24 05:15:24;;;;;;;1999.90;999.90;;;1.60;99.90;;;;;;5063895;28;20255;-83
2021/01/24 05:17:58;;;;;;;1999.90;999.90;;;1.60;99.90;;;;;;5046097;28;20195;-84
2021/01/24 05:20:29;;;;;;;1999.90;999.90;;;1.60;99.90;;;;;;5045984;28;20162;-83
2021/01/24 05:22:56;;;;;;;1999.90;999.90;;;1.60;99.90;;;;;;5063643;28;20282;-82
2021/01/24 05:25:32;;;;;;;1999.90;999.90;;;1.60;99.90;;;;;;5063784;28;20160;-82
2021/01/24 05:28:15;;;;;;;1999.90;999.90;;;1.60;99.90;;;;;;5063509;28;20183;-82
2021/01/24 05:30:41;;;;;;;1999.90;999.90;;;1.60;99.90;;;;;;5064128;28;20161;-82
2021/01/24 05:33:07;;;;;;;1999.90;999.90;;;1.60;99.90;;;;;;5063913;28;20669;-82
2021/01/24 05:35:35;;;;;;;1999.90;999.90;;;1.60;99.90;;;;;;5064419;28;20165;-81
2021/01/24 05:38:01;;;;;;;1999.90;999.90;;;1.60;99.90;;;;;;5045255;28;20222;-81
2021/01/24 05:40:26;;;;;;;1999.90;999.90;;;1.60;99.90;;;;;;5063656;28;20168;-82
2021/01/24 05:42:52;;;;;;;1999.90;999.90;;;1.60;99.90;;;;;;5045112;28;20407;-82
2021/01/24 05:45:18;;;;;;;1999.90;999.90;;;1.60;99.90;;;;;;5045087;28;20218;-82
2021/01/24 05:47:46;;;;;;;1999.90;999.90;;;1.60;99.90;;;;;;5063124;28;20770;-81
2021/01/24 05:50:13;;;;;;;1999.90;999.90;;;1.60;99.90;;;;;;5062818;28;20669;-81
2021/01/24 05:52:40;;;;;;;1999.90;999.90;;;1.60;99.90;;;;;;5062389;28;20164;-81
2021/01/24 05:55:09;;;;;;;1999.90;999.90;;;1.60;99.90;;;;;;5062501;28;20173;-80
2021/01/24 05:57:37;;;;;;;1999.90;999.90;;;1.60;99.90;;;;;;5062054;28;20247;-81
2021/01/24 06:00:05;;;;;;;1999.90;999.90;;;1.60;99.90;;;;;;5062188;28;20670;-81
2021/01/24 06:02:31;;;;;;;1999.90;999.90;;;1.70;99.90;;;;;;5044946;28;20255;-81
2021/01/24 06:04:57;;;;;;;1999.90;999.90;;;1.70;99.90;;;;;;5044067;28;20172;-81
2021/01/24 06:07:23;;;;;;;1999.90;999.90;;;1.70;99.90;;;;;;5044217;28;20164;-81
2021/01/24 06:09:50;;;;;;;1999.90;999.90;;;1.70;99.90;;;;;;5062085;28;20398;-82
2021/01/24 06:12:16;;;;;;;1999.90;999.90;;;1.70;99.90;;;;;;5059128;28;20248;-81
2021/01/24 06:14:50;;;;;;;1999.90;999.90;;;1.70;99.90;;;;;;5058238;28;20526;-82
2021/01/24 06:17:36;;;;;;;1999.90;999.90;;;1.60;99.90;;;;;;5059288;28;20619;-82
2021/01/24 06:20:04;;;;;;;1999.90;999.90;;;1.70;99.90;;;;;;5059474;28;20180;-82
2021/01/24 06:22:36;;;;;;;1999.90;999.90;;;1.60;99.90;;;;;;5042575;28;20214;-83
2021/01/24 06:25:08;;;;;;;1999.90;999.90;;;1.70;99.90;;;;;;5060633;28;20164;-83
2021/01/24 06:27:38;;;;;;;1999.90;999.90;;;1.70;99.90;;;;;;5043205;28;20188;-83
2021/01/24 06:30:09;;;;;;;1999.90;999.90;;;1.70;99.90;;;;;;5061786;28;20167;-81
2021/01/24 06:32:35;;;;;;;1999.90;999.90;;;1.70;99.90;;;;;;5062802;28;20171;-80
2021/01/24 06:35:23;;;;;;;1999.90;999.90;;;1.70;99.90;;;;;;5045301;28;20539;-79
2021/01/24 06:38:01;;;;;;;1999.90;999.90;;;1.70;99.90;;;;;;5045012;28;20268;-82
2021/01/24 06:40:32;;;;;;;1999.90;999.90;;;1.70;99.90;;;;;;5064422;28;20612;-82
2021/01/24 06:42:59;;;;;;;1999.90;999.90;;;1.70;99.90;;;;;;5065950;28;20164;-80
2021/01/24 06:45:25;;;;;;;1999.90;999.90;;;1.70;99.90;;;;;;5047271;28;20169;-80
2021/01/24 06:47:51;;;;;;;1999.90;999.90;;;1.70;99.90;;;;;;5065227;28;20164;-81
2021/01/24 06:50:37;;;;;;;1999.90;999.90;;;1.70;99.90;;;;;;5051462;28;20190;-80
2021/01/24 06:53:04;;;;;;;1999.90;999.90;;;1.70;99.90;;;;;;5069178;28;20164;-81
2021/01/24 06:55:30;;;;;;;1999.90;999.90;;;1.70;99.90;;;;;;5050242;28;20199;-81
2021/01/24 06:57:56;;;;;;;1999.90;999.90;;;1.70;99.90;;;;;;5045547;28;20200;-81
2021/01/24 07:00:22;;;;;;;1999.90;999.90;;;1.70;99.90;;;;;;5064254;28;20307;-81
2021/01/24 07:02:49;;;;;;;1999.90;999.90;;;1.70;99.90;;;;;;5068637;28;20214;-81
2021/01/24 07:05:24;;;;;;;1999.90;999.90;;;1.70;99.90;;;;;;5050109;28;20187;-81
2021/01/24 07:07:55;;;;;;;1999.90;999.90;;;1.70;99.90;;;;;;5048465;28;20168;-81
2021/01/24 07:10:50;;;;;;;1999.90;999.90;;;1.80;99.90;;;;;;5067914;28;20156;-81
2021/01/24 07:13:24;;;;;;;1999.90;999.90;;;1.70;99.90;;;;;;5045984;28;20187;-81
2021/01/24 07:16:02;;;;;;;1999.90;999.90;;;1.80;99.90;;;;;;5066452;28;20168;-81
2021/01/24 07:18:43;;;;;;;1999.90;999.90;;;1.70;99.90;;;;;;5048042;28;20192;-81
2021/01/24 07:21:11;;;;;;;1999.90;999.90;;;1.70;99.90;;;;;;5064131;28;20535;-81
2021/01/24 07:23:39;;;;;;;1999.90;999.90;;;1.70;99.90;;;;;;5061814;28;20161;-82
2021/01/24 07:26:55;;;;;;;1999.90;999.90;;;1.70;99.90;;;;;;5155819;22;20258;-84
2021/01/24 07:30:01;;;;;;;1999.90;999.90;;;1.80;99.90;;;;;;5064128;28;20531;-84
2021/01/24 07:32:54;;;;;;;1999.90;999.90;;;1.80;99.90;;;;;;4976213;28;20188;-84
2021/01/24 07:36:07;;;;;;;1999.90;999.90;;;1.70;99.90;;;;;;5042461;28;20160;-84
2021/01/24 07:45:37;;;;;;;1999.90;999.90;;;1.80;99.90;;;;;;5028887;28;20172;-84
2021/01/24 07:52:40;;;;;;;1999.90;999.90;;;1.80;99.90;;;;;;4956759;28;20709;-85
2021/01/24 07:55:35;;;;;;;1999.90;999.90;;;1.80;99.90;;;;;;4958792;28;20174;-85
2021/01/24 07:58:36;;;;;;;1999.90;999.90;;;1.80;99.90;;;;;;4922341;29;20269;-85
2021/01/24 08:01:17;;;;;;;1999.90;999.90;;;1.80;99.90;;;;;;4975088;28;20186;-84
2021/01/24 08:04:03;;;;;;;1999.90;999.90;;;1.90;99.90;;;;;;5038586;28;20639;-85
2021/01/24 08:06:40;;;;;;;1999.90;999.90;;;1.90;99.90;;;;;;5044290;28;20195;-84
2021/01/24 08:09:11;;;;;;;1999.90;999.90;;;2.00;99.90;;;;;;5043063;28;20191;-84
2021/01/24 08:11:52;;;;;;;1999.90;999.90;;;1.90;99.90;;;;;;5043896;28;20226;-84
2021/01/24 08:14:24;;;;;;;1999.90;999.90;;;2.00;99.90;;;;;;5042953;28;20238;-85
2021/01/24 08:16:51;;;;;;;1999.90;999.90;;;2.00;99.90;;;;;;5043118;28;20165;-85
2021/01/24 08:19:28;;;;;;;1999.90;999.90;;;2.00;99.90;;;;;;5044937;28;20200;-84
2021/01/24 08:21:55;;;;;;;1999.90;999.90;;;2.00;99.90;;;;;;5063028;28;20180;-84
2021/01/24 08:24:21;;;;;;;1999.90;999.90;;;2.00;99.90;;;;;;5044925;28;20175;-85
2021/01/24 08:26:47;;;;;;;1999.90;999.90;;;2.00;99.90;;;;;;5064174;28;20172;-84
2021/01/24 08:29:14;;;;;;;1999.90;999.90;;;2.00;99.90;;;;;;5046860;28;20168;-84
2021/01/24 08:31:41;;;;;;;1999.90;999.90;;;2.10;99.90;;;;;;5046577;28;20441;-84
2021/01/24 08:34:08;;;;;;;1999.90;999.90;;;2.20;99.90;;;;;;5045049;28;20168;-83
2021/01/24 08:36:36;;;;;;;1999.90;999.90;;;2.20;99.90;;;;;;5043494;28;20175;-83
2021/01/24 08:39:03;;;;;;;1999.90;999.90;;;2.20;99.90;;;;;;5040549;28;20574;-82
2021/01/24 08:41:34;;;;;;;1999.90;999.90;;;2.20;99.90;;;;;;5040029;28;20583;-82
2021/01/24 08:44:12;;;;;;;1999.90;999.90;;;2.20;99.90;;;;;;5041456;28;20164;-83
2021/01/24 08:46:42;;;;;;;1999.90;999.90;;;2.10;99.90;;;;;;5059005;28;20176;-83
2021/01/24 08:49:13;;;;;;;1999.90;999.90;;;2.10;99.90;;;;;;5038975;28;20195;-83
2021/01/24 08:51:44;;;;;;;1999.90;999.90;;;2.20;99.90;;;;;;5058391;28;20157;-83
2021/01/24 08:54:24;;;;;;;1999.90;999.90;;;2.20;99.90;;;;;;5058773;28;20173;-84
2021/01/24 08:56:51;;;;;;;1999.90;999.90;;;2.10;99.90;;;;;;5058007;28;20148;-83
2021/01/24 08:59:29;;;;;;;1999.90;999.90;;;2.10;99.90;;;;;;5058039;28;20192;-84
2021/01/24 09:02:01;;;;;;;1999.90;999.90;;;2.10;99.90;;;;;;5058879;28;20183;-85
2021/01/24 09:04:32;;;;;;;1999.90;999.90;;;2.10;99.90;;;;;;5060623;28;20164;-85
2021/01/24 09:07:03;;;;;;;1999.90;999.90;;;2.00;99.90;;;;;;5043363;28;20165;-83
2021/01/24 09:09:31;;;;;;;1999.90;999.90;;;2.10;99.90;;;;;;5040982;28;20168;-83
2021/01/24 09:11:57;;;;;;;1999.90;999.90;;;2.10;99.90;;;;;;5039234;28;20172;-84
2021/01/24 09:14:24;;;;;;;1999.90;999.90;;;2.10;99.90;;;;;;5056182;28;20164;-83
2021/01/24 09:17:17;;;;;;;1999.90;999.90;;;2.10;99.90;;;;;;5038666;28;20165;-84
2021/01/24 09:19:45;;;;;;;1999.90;999.90;;;2.10;99.90;;;;;;5057663;28;20575;-83
2021/01/24 09:22:13;;;;;;;1999.90;999.90;;;2.20;99.90;;;;;;5057503;28;20161;-83
2021/01/24 09:24:40;;;;;;;1999.90;999.90;;;2.20;99.90;;;;;;5039423;28;20172;-83
2021/01/24 09:27:07;;;;;;;1999.90;999.90;;;2.20;99.90;;;;;;5039054;28;20215;-83
2021/01/24 09:29:38;;;;;;;1999.90;999.90;;;2.20;99.90;;;;;;5057100;28;20532;-83
2021/01/24 09:32:05;;;;;;;1999.90;999.90;;;2.20;99.90;;;;;;5040149;28;20176;-84
2021/01/24 09:34:31;;;;;;;1999.90;999.90;;;2.20;99.90;;;;;;5040146;28;20188;-83
2021/01/24 09:37:31;;;;;;;1999.90;999.90;;;2.20;99.90;;;;;;5058831;28;20165;-84
2021/01/24 09:40:00;;;;;;;1999.90;999.90;;;2.20;99.90;;;;;;5058601;28;20903;-83
2021/01/24 09:42:29;;;;;;;1999.90;999.90;;;2.20;99.90;;;;;;5042414;28;20226;-84
2021/01/24 09:44:55;;;;;;;1999.90;999.90;;;2.20;99.90;;;;;;5040447;28;20176;-84
2021/01/24 09:47:20;;;;;;;1999.90;999.90;;;2.20;99.90;;;;;;5059083;28;20168;-83
2021/01/24 09:49:46;;;;;;;1999.90;999.90;;;2.20;99.90;;;;;;5062564;28;20199;-84
2021/01/24 09:52:12;;;;;;;1999.90;999.90;;;2.20;99.90;;;;;;5062098;28;20224;-83
2021/01/24 09:54:37;;;;;;;1999.90;999.90;;;2.30;99.90;;;;;;5043175;28;20631;-84
2021/01/24 09:57:03;;;;;;;1999.90;999.90;;;2.30;99.90;;;;;;5043058;28;20177;-84
2021/01/24 09:59:29;;;;;;;1999.90;999.90;;;2.40;99.90;;;;;;5060278;28;20195;-83
2021/01/24 10:01:55;;;;;;;1999.90;999.90;;;2.40;99.90;;;;;;5041876;28;20482;-83
2021/01/24 10:04:20;;;;;;;1999.90;999.90;;;2.40;99.90;;;;;;5058019;28;20615;-83
2021/01/24 10:06:46;;;;;;;1999.90;999.90;;;2.40;99.90;;;;;;5058397;28;20165;-83
2021/01/24 10:09:12;;;;;;;1999.90;999.90;;;2.40;99.90;;;;;;5040035;28;20239;-83
2021/01/24 10:11:37;;;;;;;1999.90;999.90;;;2.50;99.90;;;;;;5058984;28;20445;-82
2021/01/24 10:14:03;;;;;;;1999.90;999.90;;;2.50;99.90;;;;;;5059140;28;20176;-84
2021/01/24 10:16:30;;;;;;;1999.90;999.90;;;2.50;99.90;;;;;;5058753;28;20624;-84
2021/01/24 10:18:56;;;;;;;1999.90;999.90;;;2.60;99.90;;;;;;5058229;28;20196;-83
2021/01/24 10:21:22;;;;;;;1999.90;999.90;;;2.50;99.90;;;;;;5042130;28;20168;-83
2021/01/24 10:23:48;;;;;;;1999.90;999.90;;;2.60;99.90;;;;;;5059976;28;20247;-84
2021/01/24 10:26:14;;;;;;;1999.90;999.90;;;2.60;99.90;;;;;;5041775;28;20172;-84
2021/01/24 10:28:40;;;;;;;1999.90;999.90;;;2.50;99.90;;;;;;5041618;28;20227;-83
2021/01/24 10:31:09;;;;;;;1999.90;999.90;;;2.60;99.90;;;;;;5061260;28;20169;-83
2021/01/24 10:33:45;;;;;;;1999.90;999.90;;;2.60;99.90;;;;;;5041595;28;20411;-83
2021/01/24 10:36:22;;;;;;;1999.90;999.90;;;2.60;99.90;;;;;;5059239;28;20176;-84
2021/01/24 10:39:05;;;;;;;1999.90;999.90;;;2.60;99.90;;;;;;5059068;28;20195;-83
2021/01/24 10:41:44;;;;;;;1999.90;999.90;;;2.60;99.90;;;;;;5058263;28;20145;-84
2021/01/24 10:44:32;;;;;;;1999.90;999.90;;;2.70;99.90;;;;;;5058345;28;20140;-83
2021/01/24 10:47:36;;;;;;;1999.90;999.90;;;2.70;99.90;;;;;;5057895;28;20145;-83
2021/01/24 10:50:21;;;;;;;1999.90;999.90;;;2.70;99.90;;;;;;4956543;29;20566;-83
2021/01/24 10:53:16;;;;;;;1999.90;999.90;;;2.70;99.90;;;;;;5058565;28;20144;-84
2021/01/24 10:59:26;;;;;;;1999.90;999.90;;;2.80;99.90;;;;;;5049575;28;20279;-83
2021/01/24 11:02:12;;;;;;;1999.90;999.90;;;2.80;99.90;;;;;;5058546;28;20141;-83
2021/01/24 11:04:55;;;;;;;1999.90;999.90;;;2.80;99.90;;;;;;5056430;28;20177;-83
2021/01/24 11:08:00;;;;;;;;;;;;;;;;;;;;;
2021/01/24 11:10:46;;;;;;;1999.90;999.90;;;2.90;99.90;;;;;;5058146;28;20247;-84
2021/01/24 11:13:29;;;;;;;1999.90;999.90;;;2.90;99.90;;;;;;5057188;28;20554;-84
2021/01/24 11:16:04;;;;;;;1999.90;999.90;;;2.90;99.90;;;;;;5057153;28;20171;-83
2021/01/24 11:18:29;;;;;;;1999.90;999.90;;;3.00;99.90;;;;;;5056796;28;20180;-84
2021/01/24 11:21:13;;;;;;;1999.90;999.90;;;2.90;99.90;;;;;;5040037;28;20168;-83
2021/01/24 11:23:39;;;;;;;1999.90;999.90;;;2.80;99.90;;;;;;5040319;28;20177;-83
2021/01/24 11:26:19;;;;;;;1999.90;999.90;;;2.90;99.90;;;;;;5057565;28;20218;-84
2021/01/24 11:28:47;;;;;;;1999.90;999.90;;;3.00;99.90;;;;;;5057567;28;20674;-84
2021/01/24 11:31:18;;;;;;;1999.90;999.90;;;3.00;99.90;;;;;;5057328;28;20168;-84
2021/01/24 11:33:52;;;;;;;1999.90;999.90;;;3.00;99.90;;;;;;5057187;28;20188;-84
2021/01/24 11:36:38;;;;;;;1999.90;999.90;;;3.00;99.90;;;;;;5057561;28;20171;-84
2021/01/24 11:39:14;;;;;;;1999.90;999.90;;;3.00;99.90;;;;;;5039247;28;20543;-84
2021/01/24 11:42:04;;;;;;;1999.90;999.90;;;3.00;99.90;;;;;;5057122;28;20155;-84
2021/01/24 11:44:54;;;;;;;1999.90;999.90;;;3.10;99.90;;;;;;5057569;28;20171;-84
2021/01/24 11:47:26;;;;;;;1999.90;999.90;;;3.20;99.90;;;;;;5057544;28;20219;-84
2021/01/24 11:50:41;;;;;;;1999.90;999.90;;;3.20;99.90;;;;;;5039153;28;20586;-84
2021/01/24 11:53:17;;;;;;;1999.90;999.90;;;3.30;99.90;;;;;;4988145;28;20177;-85
2021/01/24 11:56:21;;;;;;;;;;;;;;;;;;;;;
2021/01/24 11:59:33;;;;;;;1999.90;999.90;;;3.60;99.90;;;;;;5053640;28;20738;-85
2021/01/24 12:01:52;;;;;;;1999.90;999.90;;;3.60;99.90;;;;;;5052664;28;20188;-85
2021/01/24 12:07:38;;;;;;;1999.90;999.90;;;3.70;99.90;;;;;;4975402;28;20258;-85
2021/01/24 12:10:09;;;;;;;1999.90;999.90;;;3.80;99.90;;;;;;4975494;28;20190;-85
2021/01/24 12:12:38;;;;;;;1999.90;999.90;;;3.80;99.90;;;;;;5019463;28;20183;-85
2021/01/24 12:15:16;;;;;;;1999.90;999.90;;;3.80;99.90;;;;;;5038054;28;20179;-85
2021/01/24 12:17:45;;;;;;;1999.90;999.90;;;3.90;99.90;;;;;;5039149;28;20192;-85
2021/01/24 12:20:20;;;;;;;1999.90;999.90;;;3.90;99.90;;;;;;5038732;28;20247;-85
2021/01/24 12:22:51;;;;;;;1999.90;999.90;;;3.90;99.90;;;;;;5037889;28;20172;-86
2021/01/24 12:25:19;;;;;;;1999.90;999.90;;;3.90;99.90;;;;;;5037444;28;20259;-84
2021/01/24 12:27:56;;;;;;;1999.90;999.90;;;4.00;99.90;;;;;;5055782;28;20191;-85
2021/01/24 12:30:36;;;;;;;1999.90;999.90;;;4.00;99.90;;;;;;5056757;28;20168;-85
2021/01/24 12:33:37;;;;;;;1999.90;999.90;;;4.00;99.90;;;;;;5037367;28;20551;-84
2021/01/24 12:36:31;;;;;;;1999.90;999.90;;;3.90;99.90;;;;;;5026631;28;20173;-84
2021/01/24 12:39:26;;;;;;;1999.90;999.90;;;3.80;99.90;;;;;;5024046;28;20319;-85
2021/01/24 12:41:52;;;;;;;1999.90;999.90;;;3.80;99.90;;;;;;5056868;28;20223;-85
2021/01/24 12:44:31;;;;;;;1999.90;999.90;;;3.70;99.90;;;;;;5056518;28;20956;-85
2021/01/24 12:47:15;;;;;;;1999.90;999.90;;;3.80;99.90;;;;;;5038963;28;20402;-85
2021/01/24 12:49:45;;;;;;;1999.90;999.90;;;3.80;99.90;;;;;;5038907;28;20172;-86
2021/01/24 12:52:24;;;;;;;1999.90;999.90;;;3.80;99.90;;;;;;5040911;28;20168;-86
2021/01/24 12:55:06;;;;;;;1999.90;999.90;;;3.80;99.90;;;;;;5041250;28;20176;-86
2021/01/24 12:57:38;;;;;;;1999.90;999.90;;;3.80;99.90;;;;;;5039521;28;20191;-86
2021/01/24 13:00:18;;;;;;;1999.90;999.90;;;3.70;99.90;;;;;;5058995;28;20169;-86
2021/01/24 13:02:47;;;;;;;1999.90;999.90;;;3.70;99.90;;;;;;5041421;28;20172;-86
2021/01/24 13:05:19;;;;;;;1999.90;999.90;;;3.70;99.90;;;;;;5058552;28;20161;-86
2021/01/24 13:07:57;;;;;;;1999.90;999.90;;;3.70;99.90;;;;;;5040927;28;20172;-86
2021/01/24 13:10:30;;;;;;;1999.90;999.90;;;3.70;99.90;;;;;;5039890;28;20699;-86
2021/01/24 13:13:07;;;;;;;1999.90;999.90;;;3.70;99.90;;;;;;5040158;28;20180;-86
2021/01/24 13:15:35;;;;;;;1999.90;999.90;;;3.70;99.90;;;;;;5039203;28;20700;-86
2021/01/24 13:18:04;;;;;;;1999.90;999.90;;;3.70;99.90;;;;;;5038858;28;20716;-85
2021/01/24 13:20:30;;;;;;;1999.90;999.90;;;3.70;99.90;;;;;;5056784;28;20171;-85
2021/01/24 13:23:29;;;;;;;1999.90;999.90;;;3.80;99.90;;;;;;5042424;28;20165;-85
2021/01/24 13:26:04;;;;;;;1999.90;999.90;;;3.90;99.90;;;;;;5040595;28;20419;-85
2021/01/24 13:28:40;;;;;;;1999.90;999.90;;;3.80;99.90;;;;;;5042273;28;20525;-86
2021/01/24 13:31:12;;;;;;;1999.90;999.90;;;3.90;99.90;;;;;;5041740;28;20176;-86
2021/01/24 13:33:48;;;;;;;1999.90;999.90;;;4.00;99.90;;;;;;5059248;28;20145;-86
2021/01/24 13:36:17;;;;;;;1999.90;999.90;;;3.90;99.90;;;;;;5041287;28;20191;-85
2021/01/24 13:38:49;;;;;;;1999.90;999.90;;;3.90;99.90;;;;;;5041327;28;20192;-85
2021/01/24 13:41:25;;;;;;;1999.90;999.90;;;3.90;99.90;;;;;;5039834;28;20169;-86
2021/01/24 13:43:51;;;;;;;1999.90;999.90;;;3.90;99.90;;;;;;5057601;28;20171;-85
2021/01/24 13:46:20;;;;;;;1999.90;999.90;;;3.80;99.90;;;;;;5040666;28;20165;-86
2021/01/24 13:48:46;;;;;;;1999.90;999.90;;;3.90;99.90;;;;;;5057484;28;20414;-87
2021/01/24 13:51:21;;;;;;;1999.90;999.90;;;3.90;99.90;;;;;;5040606;28;20168;-86